Aeroporto :
LOGIN :

Iscrizione | Disclaimer

   EN    FR    IT 

 










Sommario :    VFR   VFR Marginale   IFR   IFR Intensivo   IFR Molto Intensivo
Visibilità : 
Base nubi : 
>= 8 km
>= 3000ft
5 / 8 km
1000 / 3000 ft
1500m / 5 km
500 / 1000 ft
800 / 1500m
200 / 500 ft
< 800m
< 200 ft
Simboli :   Temporali  Nebbia  Neve Forte  Precipitazioni Forti  Vento > 20 kt
SIGMETs :   Varie  Temporali  Ghiacco  Turbolenza  Onda orograficha  Ceneri Vulcaniche







- Altitudine del aeroporto : 408 ft
- Codice IATA : SOB


LHSM - Sarmellek Balaton

ULTIMO METAR :
  • 190315Z AUTO VRB01KT 5000 -SHRA SCT054TCU BKN122 19/18 Q1014

METARs OBSOLETI :
  • 190245Z AUTO VRB01KT 6000 -SHRA SCT034CB BKN056 BKN132 19/18 Q1013
  • 190215Z AUTO 00000KT 6000 -RA SCT033CB BKN069 BKN084 19/18 Q1014 RERA
  • 190145Z AUTO 29006KT 260V330 6000 TSRA FEW033CB BKN058 19/18 Q1014 RERA
  • 190115Z AUTO 22011KT 7000 -TSRA BKN034CB 20/18 Q1015
  • 190045Z AUTO VRB02KT 7000 VCTS SCT052CB SCT107 20/19 Q1014

Previsioni scadute.
Nessun NOTAM noto per questo aeroporto.
1 SIGMET conosciuto per la FIR Budapest (LHCC) :
 
Temporali affogati
LHCC SIGMET 06 VALID 182230/182400 LHBP
LHCC BUDAPEST FIR EMBD TS OBS WI N4823 E02142 - N4752 E02110 - N4752 E02017 - N4811 E02001 - N4837 E02031 - N4836 E02127 - N4823 E02142 SFC/FL330 MOV N NC=



MetMap, La meteo Aeronautica in un colpo d'occhio ! - Copyright ORBIFLY Dicembre 2007 - Disclaimer

ORBIFLY MET'MAP TEAM :

Programmazione e sviluppo : Alexandra Zaïnal
Concezione e sviluppo : Baudouin d'Aumeries
Co-Programmazione e sviluppo : Marc-Olivier Méhu
Supporto tecnico e logistico : Manuel Goepfert
Aiuto per la traduzione : Arnaldo La Scala

Contatto : metmap@orbifly.com




FONTI E CREDITI :

   NOAA